createdAt,value
2018-04-14T00:00:48.053Z,93.00
2018-04-14T00:03:16.398Z,92.80
2018-04-14T00:05:43.953Z,92.80
2018-04-14T00:08:12.278Z,92.80
2018-04-14T00:10:39.850Z,92.80
2018-04-14T00:13:07.400Z,92.90
2018-04-14T00:15:35.004Z,93.00
2018-04-14T00:18:02.571Z,92.90
2018-04-14T00:20:30.891Z,92.90
2018-04-14T00:22:58.470Z,92.90
2018-04-14T00:25:26.019Z,92.90
2018-04-14T00:27:53.648Z,93.00
2018-04-14T00:30:21.234Z,93.10
2018-04-14T00:32:49.590Z,93.00
2018-04-14T00:35:17.121Z,93.00
2018-04-14T00:37:44.803Z,93.00
2018-04-14T00:40:12.347Z,93.00
2018-04-14T00:42:39.962Z,93.10
2018-04-14T00:45:07.533Z,93.20
2018-04-14T00:47:35.182Z,93.20
2018-04-14T00:50:02.718Z,93.20
2018-04-14T00:52:30.243Z,93.20
2018-04-14T00:54:57.835Z,93.20
2018-04-14T00:57:25.418Z,93.20
2018-04-14T00:59:53.722Z,93.20
2018-04-14T01:02:21.283Z,93.10
2018-04-14T01:04:48.824Z,93.20
2018-04-14T01:07:16.463Z,93.10
2018-04-14T01:09:43.989Z,93.10
2018-04-14T01:12:11.610Z,93.10
2018-04-14T01:14:39.962Z,93.00
2018-04-14T01:17:07.479Z,93.10
2018-04-14T01:19:35.070Z,93.00
2018-04-14T01:22:02.626Z,93.00
2018-04-14T01:24:30.154Z,93.00
2018-04-14T01:26:57.653Z,93.10
2018-04-14T01:29:25.203Z,93.10
2018-04-14T01:31:53.468Z,93.20
2018-04-14T01:34:21.074Z,93.20
2018-04-14T01:36:48.602Z,93.30
2018-04-14T01:39:16.953Z,93.40
2018-04-14T01:41:44.477Z,93.40
2018-04-14T01:44:12.087Z,93.40
2018-04-14T01:46:39.601Z,93.40
2018-04-14T01:49:07.889Z,93.50
2018-04-14T01:51:36.149Z,93.50
2018-04-14T01:54:03.736Z,93.50
2018-04-14T01:56:32.063Z,93.50
2018-04-14T01:58:59.707Z,93.50
2018-04-14T02:01:27.269Z,93.40
2018-04-14T02:03:54.907Z,93.60
2018-04-14T02:06:22.469Z,93.70
2018-04-14T02:08:50.051Z,93.70
2018-04-14T02:11:17.590Z,93.70
2018-04-14T02:13:45.160Z,93.70
2018-04-14T02:16:12.756Z,93.70
2018-04-14T02:18:40.430Z,93.70
2018-04-14T02:21:07.933Z,93.70
2018-04-14T02:23:36.241Z,93.70
2018-04-14T02:26:03.729Z,93.70
2018-04-14T02:28:31.311Z,93.80
2018-04-14T02:30:59.612Z,93.70
2018-04-14T02:33:27.176Z,93.70
2018-04-14T02:35:54.691Z,93.60
2018-04-14T02:38:22.289Z,93.50
2018-04-14T02:40:49.843Z,93.50
2018-04-14T02:43:17.397Z,93.40
2018-04-14T02:45:45.731Z,93.40
2018-04-14T02:48:13.305Z,93.40
2018-04-14T02:50:40.888Z,93.40
2018-04-14T02:53:08.498Z,93.70
2018-04-14T02:55:36.050Z,93.40
2018-04-14T02:58:04.470Z,93.40
2018-04-14T03:00:32.018Z,93.30
2018-04-14T03:02:59.543Z,93.20
2018-04-14T03:05:27.126Z,93.10
2018-04-14T03:07:54.694Z,93.10
2018-04-14T03:10:22.314Z,93.00
2018-04-14T03:12:49.806Z,93.00
2018-04-14T03:15:17.335Z,92.90
2018-04-14T03:17:44.861Z,92.90
2018-04-14T03:20:12.408Z,92.80
2018-04-14T03:22:39.901Z,92.80
2018-04-14T03:25:07.402Z,92.80
2018-04-14T03:27:34.946Z,92.80
2018-04-14T03:30:02.507Z,92.80
2018-04-14T03:32:30.034Z,92.80
2018-04-14T03:34:57.608Z,92.90
2018-04-14T03:37:25.861Z,92.80
2018-04-14T03:39:53.429Z,92.80
2018-04-14T03:42:20.913Z,92.80
2018-04-14T03:44:49.262Z,92.70
2018-04-14T03:47:16.797Z,92.70
2018-04-14T03:49:44.388Z,92.70
2018-04-14T03:52:11.942Z,92.70
2018-04-14T03:54:39.448Z,92.70
2018-04-14T03:57:07.035Z,92.60
2018-04-14T03:59:34.571Z,92.50
2018-04-14T04:02:02.137Z,92.40
2018-04-14T04:04:29.709Z,92.40
2018-04-14T04:06:57.235Z,92.30
2018-04-14T04:09:25.503Z,92.30
2018-04-14T04:11:53.058Z,92.20
2018-04-14T04:14:20.556Z,92.30
2018-04-14T04:16:48.122Z,92.40
2018-04-14T04:19:27.550Z,92.20
2018-04-14T04:22:06.839Z,92.10
2018-04-14T04:24:45.897Z,91.80
2018-04-14T04:27:13.436Z,91.70
2018-04-14T04:29:40.976Z,91.70
2018-04-14T04:32:08.564Z,91.80
2018-04-14T04:34:36.067Z,92.20
2018-04-14T04:37:03.589Z,92.20
2018-04-14T04:39:31.121Z,92.30
2018-04-14T04:41:58.700Z,92.70
2018-04-14T04:44:26.199Z,92.60
2018-04-14T04:46:53.741Z,92.70
2018-04-14T04:49:21.258Z,92.80
2018-04-14T04:51:49.535Z,92.90
2018-04-14T04:54:17.047Z,92.80
2018-04-14T04:56:44.553Z,92.70
2018-04-14T04:59:12.797Z,92.70
2018-04-14T05:01:40.289Z,92.70
2018-04-14T05:04:07.763Z,92.70
2018-04-14T05:06:35.262Z,92.70
2018-04-14T05:09:02.741Z,92.70
2018-04-14T05:11:30.251Z,92.60
2018-04-14T05:13:57.737Z,92.50
2018-04-14T05:16:25.233Z,92.30
2018-04-14T05:18:53.482Z,92.60
2018-04-14T05:21:20.978Z,92.60
2018-04-14T05:23:49.441Z,92.40
2018-04-14T05:26:17.765Z,92.30
2018-04-14T05:28:45.254Z,92.30
2018-04-14T05:31:12.736Z,92.30
2018-04-14T05:33:41.009Z,92.40
2018-04-14T05:36:08.498Z,92.30
2018-04-14T05:38:36.774Z,92.10
2018-04-14T05:41:04.262Z,92.10
2018-04-14T05:43:31.768Z,92.20
2018-04-14T05:45:59.257Z,92.50
2018-04-14T05:48:26.767Z,92.50
2018-04-14T05:50:54.266Z,92.40
2018-04-14T05:53:22.628Z,92.60
2018-04-14T05:55:50.183Z,92.60
2018-04-14T05:58:18.449Z,93.00
2018-04-14T06:00:45.939Z,93.00
2018-04-14T06:03:13.455Z,92.70
2018-04-14T06:05:40.940Z,92.50
2018-04-14T06:08:09.209Z,92.30
2018-04-14T06:10:36.690Z,92.30
2018-04-14T06:13:04.949Z,92.30
2018-04-14T06:15:32.470Z,92.30
2018-04-14T06:17:59.961Z,92.00
2018-04-14T06:20:27.447Z,91.70
2018-04-14T06:22:55.705Z,91.10
2018-04-14T06:25:23.182Z,91.10
2018-04-14T06:27:51.454Z,90.20
2018-04-14T06:30:19.697Z,90.00
2018-04-14T06:32:47.187Z,90.00
2018-04-14T06:35:14.693Z,90.10
2018-04-14T06:37:42.197Z,90.00
2018-04-14T06:40:10.471Z,87.50
2018-04-14T06:42:37.941Z,87.40
2018-04-14T06:45:06.209Z,84.50
2018-04-14T06:47:33.691Z,84.50
2018-04-14T06:50:01.954Z,82.30
2018-04-14T06:52:30.202Z,81.70
2018-04-14T06:54:57.700Z,81.70
2018-04-14T06:57:25.947Z,82.40
2018-04-14T06:59:53.433Z,82.20
2018-04-14T07:02:20.901Z,79.70
2018-04-14T07:04:48.402Z,81.00
2018-04-14T07:07:16.141Z,79.10
2018-04-14T07:09:43.634Z,79.00
2018-04-14T07:12:11.113Z,79.20
2018-04-14T07:14:38.605Z,77.30
2018-04-14T07:17:06.123Z,75.80
2018-04-14T07:19:33.643Z,75.60
2018-04-14T07:22:01.141Z,75.70
2018-04-14T07:24:28.633Z,74.90
2018-04-14T07:26:56.878Z,71.70
2018-04-14T07:29:24.387Z,71.70
2018-04-14T07:31:51.878Z,71.50
2018-04-14T07:34:19.368Z,71.50
2018-04-14T07:36:46.841Z,71.10
2018-04-14T07:39:15.103Z,68.10
2018-04-14T07:41:42.594Z,68.10
2018-04-14T07:44:10.097Z,67.30
2018-04-14T07:46:37.593Z,64.80
2018-04-14T07:49:05.875Z,64.40
2018-04-14T07:51:34.176Z,65.60
2018-04-14T07:54:02.405Z,66.20
2018-04-14T07:56:29.907Z,66.20
2018-04-14T07:58:58.150Z,61.80
2018-04-14T08:01:25.650Z,61.70
2018-04-14T08:03:53.126Z,62.60
2018-04-14T08:06:20.620Z,61.90
2018-04-14T08:08:48.105Z,62.00
2018-04-14T08:11:16.370Z,60.80
2018-04-14T08:13:44.616Z,58.70
2018-04-14T08:16:12.113Z,58.70
2018-04-14T08:18:40.361Z,57.60
2018-04-14T08:21:07.857Z,57.60
2018-04-14T08:23:36.138Z,58.20
2018-04-14T08:26:03.642Z,58.10
2018-04-14T08:28:31.136Z,57.10
2018-04-14T08:30:59.417Z,57.00
2018-04-14T08:33:27.662Z,56.20
2018-04-14T08:35:55.197Z,56.20
2018-04-14T08:38:22.681Z,55.50
2018-04-14T08:40:50.188Z,54.70
2018-04-14T08:43:18.442Z,54.50
2018-04-14T08:45:46.721Z,53.60
2018-04-14T08:48:14.210Z,53.50
2018-04-14T08:50:41.720Z,53.80
2018-04-14T08:53:09.193Z,52.30
2018-04-14T08:55:36.697Z,51.90
2018-04-14T08:58:04.186Z,52.00
2018-04-14T09:00:31.691Z,52.30
2018-04-14T09:02:59.943Z,52.80
2018-04-14T09:05:27.457Z,52.70
2018-04-14T09:07:54.946Z,52.40
2018-04-14T09:10:22.416Z,52.00
2018-04-14T09:12:49.933Z,52.50
2018-04-14T09:15:17.422Z,52.90
2018-04-14T09:17:44.920Z,52.80
2018-04-14T09:20:13.185Z,53.80
2018-04-14T09:22:40.686Z,53.80
2018-04-14T09:25:08.178Z,52.30
2018-04-14T09:27:35.681Z,52.40
2018-04-14T09:30:03.939Z,53.60
2018-04-14T09:32:32.209Z,53.30
2018-04-14T09:34:59.693Z,53.30
2018-04-14T09:37:27.953Z,53.60
2018-04-14T09:39:55.442Z,53.60
2018-04-14T09:42:23.715Z,52.30
2018-04-14T09:44:51.960Z,52.30
2018-04-14T09:47:19.462Z,52.20
2018-04-14T09:49:46.947Z,51.70
2018-04-14T09:52:14.455Z,52.80
2018-04-14T09:54:42.713Z,51.20
2018-04-14T09:57:10.218Z,51.20
2018-04-14T09:59:37.697Z,51.10
2018-04-14T10:02:05.197Z,50.20
2018-04-14T10:04:32.677Z,49.20
2018-04-14T10:07:00.950Z,50.20
2018-04-14T10:09:29.525Z,50.60
2018-04-14T10:11:57.021Z,50.50
2018-04-14T10:14:24.518Z,50.80
2018-04-14T10:16:52.009Z,49.60
2018-04-14T10:19:20.257Z,48.80
2018-04-14T10:21:48.728Z,48.80
2018-04-14T10:24:16.225Z,49.00
2018-04-14T10:26:44.505Z,48.20
2018-04-14T10:29:12.759Z,50.10
2018-04-14T10:31:40.246Z,50.10
2018-04-14T10:34:08.555Z,48.10
2018-04-14T10:36:36.045Z,48.10
2018-04-14T10:39:03.549Z,48.40
2018-04-14T10:41:31.793Z,46.40
2018-04-14T10:43:59.297Z,46.40
2018-04-14T10:46:26.785Z,46.60
2018-04-14T10:48:54.285Z,47.80
2018-04-14T10:51:21.953Z,46.90
2018-04-14T10:53:50.226Z,47.20
2018-04-14T10:56:17.757Z,47.10
2018-04-14T10:58:45.446Z,47.70
2018-04-14T11:01:12.935Z,47.30
2018-04-14T11:03:41.317Z,48.10
2018-04-14T11:06:08.797Z,48.10
2018-04-14T11:08:37.518Z,45.30
2018-04-14T11:11:05.002Z,45.30
2018-04-14T11:13:33.282Z,44.40
2018-04-14T11:16:01.535Z,44.80
2018-04-14T11:18:29.051Z,44.70
2018-04-14T11:20:56.590Z,45.50
2018-04-14T11:23:24.854Z,46.70
2018-04-14T11:25:53.122Z,46.90
2018-04-14T11:28:20.786Z,46.20
2018-04-14T11:30:48.303Z,46.20
2018-04-14T11:33:15.809Z,44.90
2018-04-14T11:35:43.294Z,44.10
2018-04-14T11:38:10.794Z,42.80
2018-04-14T11:40:38.757Z,43.30
2018-04-14T11:43:06.343Z,44.00
2018-04-14T11:45:33.834Z,45.10
2018-04-14T11:48:01.313Z,43.50
2018-04-14T11:50:28.813Z,42.30
2018-04-14T11:52:57.061Z,41.40
2018-04-14T11:55:24.571Z,41.30
2018-04-14T11:57:52.045Z,42.50
2018-04-14T12:00:19.546Z,42.40
2018-04-14T12:02:47.046Z,42.80
2018-04-14T12:05:14.557Z,41.70
2018-04-14T12:07:42.037Z,42.40
2018-04-14T12:10:10.316Z,40.20
2018-04-14T12:12:37.842Z,40.20
2018-04-14T12:15:05.337Z,40.90
2018-04-14T12:17:33.581Z,40.50
2018-04-14T12:20:01.082Z,40.50
2018-04-14T12:22:29.321Z,39.90
2018-04-14T12:24:56.900Z,39.90
2018-04-14T12:27:24.381Z,39.60
2018-04-14T12:29:52.645Z,38.10
2018-04-14T12:32:20.894Z,38.20
2018-04-14T12:34:48.397Z,38.10
2018-04-14T12:37:15.889Z,36.60
2018-04-14T12:39:43.382Z,37.10
2018-04-14T12:42:10.864Z,39.70
2018-04-14T12:44:38.383Z,38.50
2018-04-14T12:47:05.870Z,37.60
2018-04-14T12:49:33.383Z,37.10
2018-04-14T12:52:00.863Z,36.60
2018-04-14T12:54:28.395Z,38.80
2018-04-14T12:56:55.899Z,36.80
2018-04-14T12:59:23.393Z,37.90
2018-04-14T13:01:50.898Z,38.70
2018-04-14T13:04:18.405Z,39.20
2018-04-14T13:06:46.906Z,36.00
2018-04-14T13:09:14.504Z,35.90
2018-04-14T13:11:42.000Z,35.30
2018-04-14T13:14:10.250Z,36.20
2018-04-14T13:16:37.750Z,36.00
2018-04-14T13:19:05.303Z,35.70
2018-04-14T13:21:32.758Z,35.50
2018-04-14T13:24:01.022Z,34.90
2018-04-14T13:26:29.303Z,35.10
2018-04-14T13:28:57.554Z,35.10
2018-04-14T13:31:25.055Z,35.00
2018-04-14T13:33:53.313Z,34.20
2018-04-14T13:36:21.593Z,35.00
2018-04-14T13:38:49.846Z,33.50
2018-04-14T13:41:24.869Z,33.40
2018-04-14T13:43:52.354Z,33.80
2018-04-14T13:46:19.877Z,34.60
2018-04-14T13:48:47.361Z,34.50
2018-04-14T13:51:14.869Z,33.70
2018-04-14T13:53:42.359Z,34.60
2018-04-14T13:56:09.865Z,34.30
2018-04-14T13:58:38.119Z,33.60
2018-04-14T14:01:05.640Z,33.50
2018-04-14T14:03:33.122Z,34.10
2018-04-14T14:06:00.593Z,34.90
2018-04-14T14:08:28.099Z,35.10
2018-04-14T14:10:55.581Z,35.50
2018-04-14T14:13:23.083Z,35.40
2018-04-14T14:15:50.566Z,32.80
2018-04-14T14:18:18.834Z,33.80
2018-04-14T14:20:47.088Z,33.00
2018-04-14T14:23:14.580Z,32.90
2018-04-14T14:25:42.829Z,33.70
2018-04-14T14:28:10.326Z,33.60
2018-04-14T14:30:37.797Z,32.10
2018-04-14T14:33:05.293Z,32.30
2018-04-14T14:35:32.777Z,32.10
2018-04-14T14:38:01.050Z,31.20
2018-04-14T14:40:29.300Z,31.90
2018-04-14T14:42:56.807Z,31.90
2018-04-14T14:45:25.066Z,31.50
2018-04-14T14:47:52.559Z,31.40
2018-04-14T14:50:30.486Z,32.50
2018-04-14T14:52:57.994Z,33.00
2018-04-14T14:55:26.249Z,32.80
2018-04-14T14:57:53.757Z,32.80
2018-04-14T15:00:21.245Z,33.10
2018-04-14T15:02:48.775Z,33.20
2018-04-14T15:05:17.009Z,33.60
2018-04-14T15:07:44.511Z,33.70
2018-04-14T15:10:11.987Z,34.60
2018-04-14T15:12:39.489Z,32.90
2018-04-14T15:15:06.992Z,33.30
2018-04-14T15:17:34.488Z,34.00
2018-04-14T15:20:01.985Z,34.80
2018-04-14T15:22:30.244Z,34.80
2018-04-14T15:24:57.744Z,34.80
2018-04-14T15:27:25.258Z,35.00
2018-04-14T15:29:52.757Z,35.50
2018-04-14T15:32:20.243Z,34.40
2018-04-14T15:34:47.737Z,34.80
2018-04-14T15:37:15.223Z,34.70
2018-04-14T15:39:43.494Z,36.10
2018-04-14T15:42:11.750Z,36.30
2018-04-14T15:44:39.250Z,36.20
2018-04-14T15:47:06.737Z,36.50
2018-04-14T15:49:34.239Z,35.90
2018-04-14T15:52:02.502Z,36.30
2018-04-14T15:54:29.993Z,36.20
2018-04-14T15:56:58.249Z,36.70
2018-04-14T15:59:25.759Z,36.70
2018-04-14T16:01:53.249Z,36.10
2018-04-14T16:04:20.795Z,36.30
2018-04-14T16:06:48.233Z,36.80
2018-04-14T16:09:15.736Z,36.50
2018-04-14T16:11:43.220Z,36.30
2018-04-14T16:14:11.487Z,36.30
2018-04-14T16:16:38.978Z,36.20
2018-04-14T16:19:06.480Z,36.70
2018-04-14T16:21:33.973Z,36.90
2018-04-14T16:24:02.233Z,36.50
2018-04-14T16:26:29.718Z,36.50
2018-04-14T16:28:57.990Z,37.50
2018-04-14T16:31:26.242Z,37.60
2018-04-14T16:33:53.721Z,37.50
2018-04-14T16:36:21.977Z,38.00
2018-04-14T16:38:49.466Z,37.90
2018-04-14T16:41:17.746Z,38.00
2018-04-14T16:43:45.990Z,38.40
2018-04-14T16:46:13.489Z,38.40
2018-04-14T16:48:40.977Z,38.50
2018-04-14T16:51:08.477Z,38.90
2018-04-14T16:53:35.966Z,38.90
2018-04-14T16:56:04.225Z,39.40
2018-04-14T16:58:32.487Z,39.90
2018-04-14T17:00:59.999Z,39.90
2018-04-14T17:03:27.481Z,39.90
2018-04-14T17:05:54.995Z,40.00
2018-04-14T17:08:22.483Z,40.40
2018-04-14T17:10:49.993Z,40.50
2018-04-14T17:13:17.482Z,40.70
2018-04-14T17:15:44.990Z,41.10
2018-04-14T17:18:12.469Z,41.40
2018-04-14T17:20:39.985Z,41.60
2018-04-14T17:23:07.471Z,41.90
2018-04-14T17:25:34.970Z,41.70
2018-04-14T17:28:02.448Z,41.90
2018-04-14T17:30:29.945Z,42.20
2018-04-14T17:32:57.438Z,42.40
2018-04-14T17:35:25.706Z,42.60
2018-04-14T17:37:53.958Z,42.60
2018-04-14T17:40:21.471Z,42.60
2018-04-14T17:42:48.959Z,42.40
2018-04-14T17:45:16.444Z,42.60
2018-04-14T17:47:43.941Z,42.50
2018-04-14T17:50:11.424Z,43.00
2018-04-14T17:52:38.942Z,42.50
2018-04-14T17:55:07.425Z,42.70
2018-04-14T17:57:35.704Z,42.80
2018-04-14T18:00:03.958Z,42.90
2018-04-14T18:02:31.496Z,42.90
2018-04-14T18:04:58.963Z,43.10
2018-04-14T18:07:26.461Z,43.10
2018-04-14T18:09:54.711Z,43.50
2018-04-14T18:12:22.219Z,43.50
2018-04-14T18:14:49.703Z,43.70
2018-04-14T18:17:17.202Z,43.80
2018-04-14T18:19:44.689Z,44.10
2018-04-14T18:22:12.967Z,44.20
2018-04-14T18:24:40.457Z,44.20
2018-04-14T18:27:07.956Z,44.50
2018-04-14T18:29:36.233Z,44.60
2018-04-14T18:32:03.745Z,44.60
2018-04-14T18:34:31.226Z,44.50
2018-04-14T18:36:58.723Z,44.60
2018-04-14T18:39:26.976Z,45.10
2018-04-14T18:41:54.472Z,45.10
2018-04-14T18:44:22.723Z,46.30
2018-04-14T18:46:50.258Z,46.20
2018-04-14T18:49:17.741Z,46.50
2018-04-14T18:51:45.245Z,46.80
2018-04-14T18:54:12.730Z,47.00
2018-04-14T18:56:40.204Z,47.30
2018-04-14T18:59:07.710Z,47.70
2018-04-14T19:01:35.961Z,48.60
2018-04-14T19:04:04.234Z,49.10
2018-04-14T19:06:31.710Z,49.10
2018-04-14T19:08:59.979Z,50.00
2018-04-14T19:11:27.454Z,50.00
2018-04-14T19:13:54.970Z,50.40
2018-04-14T19:16:22.453Z,50.90
2018-04-14T19:18:50.725Z,51.60
2018-04-14T19:21:18.978Z,52.00
2018-04-14T19:23:46.469Z,52.00
2018-04-14T19:26:13.957Z,52.30
2018-04-14T19:28:41.456Z,52.50
2018-04-14T19:31:08.942Z,52.80
2018-04-14T19:33:36.450Z,53.10
2018-04-14T19:36:04.702Z,53.60
2018-04-14T19:38:32.202Z,53.50
2018-04-14T19:41:00.466Z,54.00
2018-04-14T19:43:28.024Z,54.00
2018-04-14T19:45:55.457Z,54.10
2018-04-14T19:48:22.960Z,54.40
2018-04-14T19:50:50.454Z,54.60
2018-04-14T19:53:17.980Z,54.70
2018-04-14T19:55:45.478Z,54.80
2018-04-14T19:58:12.976Z,55.00
2018-04-14T20:00:40.449Z,55.30
2018-04-14T20:03:08.718Z,55.80
2018-04-14T20:05:36.969Z,56.50
2018-04-14T20:08:04.480Z,56.50
2018-04-14T20:10:31.967Z,57.10
2018-04-14T20:12:59.461Z,57.10
2018-04-14T20:15:26.969Z,57.10
2018-04-14T20:17:54.466Z,57.50
2018-04-14T20:20:21.965Z,57.70
2018-04-14T20:22:51.037Z,57.70
2018-04-14T20:25:19.518Z,57.80
2018-04-14T20:27:47.641Z,57.70
2018-04-14T20:30:15.161Z,57.90
2018-04-14T20:32:42.845Z,58.00
2018-04-14T20:35:10.725Z,58.10
2018-04-14T20:37:38.211Z,58.40
2018-04-14T20:40:05.719Z,58.60
2018-04-14T20:42:34.959Z,58.90
2018-04-14T20:45:02.468Z,58.80
2018-04-14T20:47:29.961Z,59.00
2018-04-14T20:49:57.469Z,59.20
2018-04-14T20:52:24.953Z,59.70
2018-04-14T20:54:53.222Z,60.20
2018-04-14T20:57:20.705Z,60.20
2018-04-14T20:59:48.985Z,61.10
2018-04-14T21:02:19.234Z,61.10
2018-04-14T21:04:46.733Z,61.00
2018-04-14T21:07:14.250Z,61.10
2018-04-14T21:09:41.731Z,61.50
2018-04-14T21:12:09.214Z,62.00
2018-04-14T21:14:36.717Z,62.10
2018-04-14T21:17:04.206Z,62.40
2018-04-14T21:19:31.712Z,62.30
2018-04-14T21:21:59.959Z,62.80
2018-04-14T21:24:27.454Z,62.80
2018-04-14T21:26:54.933Z,63.10
2018-04-14T21:29:22.443Z,63.90
2018-04-14T21:31:49.925Z,64.20
2018-04-14T21:34:18.206Z,65.40
2018-04-14T21:36:47.944Z,65.00
2018-04-14T21:39:15.446Z,65.00
2018-04-14T21:41:42.961Z,64.60
2018-04-14T21:44:10.446Z,64.60
2018-04-14T21:46:37.945Z,64.50
2018-04-14T21:49:06.202Z,65.10
2018-04-14T21:51:33.734Z,65.10
2018-04-14T21:54:01.220Z,65.30
2018-04-14T21:56:28.718Z,65.40
2018-04-14T21:58:56.202Z,65.60
2018-04-14T22:01:23.713Z,66.80
2018-04-14T22:03:51.197Z,67.10
2018-04-14T22:06:19.467Z,67.90
2018-04-14T22:08:47.713Z,67.40
2018-04-14T22:11:15.218Z,67.30
2018-04-14T22:13:42.703Z,67.10
2018-04-14T22:16:10.204Z,67.00
2018-04-14T22:18:38.453Z,67.70
2018-04-14T22:21:05.953Z,67.70
2018-04-14T22:23:34.198Z,69.60
2018-04-14T22:26:01.695Z,69.50
2018-04-14T22:28:30.025Z,68.80
2018-04-14T22:30:57.522Z,68.60
2018-04-14T22:33:25.777Z,69.80
2018-04-14T22:35:53.283Z,69.80
2018-04-14T22:38:20.761Z,70.10
2018-04-14T22:40:48.265Z,70.30
2018-04-14T22:43:15.749Z,70.30
2018-04-14T22:45:44.009Z,70.60
2018-04-14T22:48:12.254Z,70.80
2018-04-14T22:50:39.771Z,70.60
2018-04-14T22:53:07.256Z,71.00
2018-04-14T22:55:34.724Z,72.60
2018-04-14T22:58:02.221Z,72.70
2018-04-14T23:00:30.470Z,73.00
2018-04-14T23:02:57.974Z,72.80
2018-04-14T23:05:25.465Z,72.80
2018-04-14T23:07:52.977Z,72.70
2018-04-14T23:10:21.221Z,73.10
2018-04-14T23:12:48.717Z,73.00
2018-04-14T23:15:16.963Z,72.90
2018-04-14T23:17:44.461Z,72.70
2018-04-14T23:20:12.706Z,73.30
2018-04-14T23:22:40.230Z,73.20
2018-04-14T23:25:07.708Z,73.20
2018-04-14T23:27:35.206Z,73.60
2018-04-14T23:30:03.460Z,73.30
2018-04-14T23:32:36.614Z,73.20
2018-04-14T23:35:04.094Z,73.40
2018-04-14T23:37:31.584Z,73.80
2018-04-14T23:39:59.066Z,73.70
2018-04-14T23:42:27.334Z,74.50
2018-04-14T23:44:55.596Z,74.80
2018-04-14T23:47:23.866Z,74.60
2018-04-14T23:49:51.359Z,74.50
2018-04-14T23:52:18.869Z,74.30
2018-04-14T23:54:46.342Z,74.10
2018-04-14T23:57:13.842Z,73.70
2018-04-14T23:59:41.326Z,73.80
